aviador You're here:

KEQY Decoded Metar

MONROE in NC, USA
Report Time2017-07-23 07:53:00
UTC Time2017-07-23 08:34:59
Flight Rules vfr VFR
Wind220° at 06 kt
W.Decomp.*RWY 23: 6.0 kt HW 0.4 kt LCW
W.Rank220° ranks 1
Current wind is below 220° avg. (7.0)
Visibility9999 m
Phenomena:N/A
Clouds:N/A
Expected CloudBase > 1,200 ft AGL from Temp-Dew spread
CeilingNone
Temp25°C (ISA +11)
Dew Point22°C (83% RH)
QNH1012 hPa
Density Alt2,398 ft
Elevation696 ft
Report Wrong Elevation
Raw Report
KEQY 230753Z AUTO 22006KT 10SM CLR 25/22 A2989 RMK AO2 SLP114
T02500217=

Extra information for KEQY:More info

Metar Taf Metar & Taf Last 4 Metars F.Rules Stats Wind Profile Meteogram Temp Stats Airport Information Weather charts Add Link Nearby VenuesMetar ALERT Operation Metar Decoded Social comments

AIRNAV info for KEQY